Inland, Nebraska
Current Conditions -  °F | °C
As of 7:53 AM on Sunday 23 Nov 2014 (Local Time) from KHSI Reporting Station
Few Clouds Few Clouds  
Wind Chill: 35°   Ceiling: Unl
Heat Index: 44°   Visibility: 10mi
Dew Point: 35°   Wind: 23mph
Humidity: 71%   Direction: 360°N
Pressure: 29.53"   Gusts: NA
Location:  40.6°N, 98.22°W
Report Text: KHSI 231353Z AUTO 36020KT 10SM FEW085 07/02 A2953 RMK AO2 PK WND 36026/1352 SLP003 T00670017
Loading
Personal Weather Stations






























Interactive Weather Map New forecast layout! Learn more

10-Day Weather Forecast

Advertisements
Track Severe Weather on mobile